Terminal Aerodrome Forecast
Issued by NWS Blacksburg, VA

Home | Current Version | Previous Version | Text Only | Print | Product List | Glossary On
Versions: 1 2 3 4 5 6 7 8 9 10 11 12 13 14 15 16 17 18 19 20 21 22
000
FTUS41 KRNK 012321
TAFLYH
TAF
KLYH 012321Z 0200/0224 20007KT P6SM SCT025 BKN080
     FM020200 20003KT P6SM VCSH SCT025 BKN050
     FM020600 22003KT 2SM BR SCT005
     FM020900 00000KT 1/2SM FG OVC002
     FM021330 22005KT P6SM SCT015
     FM022100 23009KT P6SM -SHRA BKN050=

USA.gov is the U.S. government's official web portal to all federal, state and local government web resources and services.